sensor_id;sensor_type;location;lat;lon;timestamp;P1;durP1;ratioP1;P2;durP2;ratioP2
64865;SDS011;51347;41.994;21.402;2022-08-26T00:01:12;18.42;;;10.05;;
64865;SDS011;51347;41.994;21.402;2022-08-26T00:03:37;16.10;;;9.18;;
64865;SDS011;51347;41.994;21.402;2022-08-26T00:06:03;19.10;;;8.93;;
64865;SDS011;51347;41.994;21.402;2022-08-26T00:08:29;19.38;;;9.80;;
64865;SDS011;51347;41.994;21.402;2022-08-26T00:10:54;24.52;;;10.48;;
64865;SDS011;51347;41.994;21.402;2022-08-26T00:13:20;20.00;;;9.35;;
64865;SDS011;51347;41.994;21.402;2022-08-26T00:15:45;17.83;;;8.95;;
64865;SDS011;51347;41.994;21.402;2022-08-26T00:18:11;15.65;;;9.63;;
64865;SDS011;51347;41.994;21.402;2022-08-26T00:20:36;16.00;;;9.25;;
64865;SDS011;51347;41.994;21.402;2022-08-26T00:23:03;14.98;;;9.45;;
64865;SDS011;51347;41.994;21.402;2022-08-26T00:25:29;13.05;;;8.10;;
64865;SDS011;51347;41.994;21.402;2022-08-26T00:27:54;16.58;;;8.77;;
64865;SDS011;51347;41.994;21.402;2022-08-26T00:30:22;16.50;;;9.57;;
64865;SDS011;51347;41.994;21.402;2022-08-26T00:32:48;18.55;;;9.50;;
64865;SDS011;51347;41.994;21.402;2022-08-26T00:35:16;19.13;;;9.30;;
64865;SDS011;51347;41.994;21.402;2022-08-26T00:37:41;18.80;;;9.55;;
64865;SDS011;51347;41.994;21.402;2022-08-26T00:40:08;17.63;;;8.57;;
64865;SDS011;51347;41.994;21.402;2022-08-26T00:42:34;19.70;;;9.80;;
64865;SDS011;51347;41.994;21.402;2022-08-26T00:44:59;22.75;;;9.07;;
64865;SDS011;51347;41.994;21.402;2022-08-26T00:47:29;15.98;;;9.57;;
64865;SDS011;51347;41.994;21.402;2022-08-26T00:52:21;23.02;;;10.23;;
64865;SDS011;51347;41.994;21.402;2022-08-26T00:54:55;20.35;;;10.65;;
64865;SDS011;51347;41.994;21.402;2022-08-26T00:57:23;19.38;;;9.48;;
64865;SDS011;51347;41.994;21.402;2022-08-26T00:59:53;13.65;;;9.02;;
64865;SDS011;51347;41.994;21.402;2022-08-26T01:02:20;11.93;;;8.30;;
64865;SDS011;51347;41.994;21.402;2022-08-26T01:04:46;21.73;;;9.27;;
64865;SDS011;51347;41.994;21.402;2022-08-26T01:07:11;18.98;;;8.93;;
64865;SDS011;51347;41.994;21.402;2022-08-26T01:09:37;19.05;;;9.40;;
64865;SDS011;51347;41.994;21.402;2022-08-26T01:12:02;18.35;;;9.30;;
64865;SDS011;51347;41.994;21.402;2022-08-26T01:14:33;18.42;;;9.75;;
64865;SDS011;51347;41.994;21.402;2022-08-26T01:17:02;22.05;;;10.35;;
64865;SDS011;51347;41.994;21.402;2022-08-26T01:19:30;16.23;;;9.50;;
64865;SDS011;51347;41.994;21.402;2022-08-26T01:22:00;17.80;;;8.98;;
64865;SDS011;51347;41.994;21.402;2022-08-26T01:24:27;17.50;;;10.00;;
64865;SDS011;51347;41.994;21.402;2022-08-26T01:26:55;16.67;;;8.55;;
64865;SDS011;51347;41.994;21.402;2022-08-26T01:29:21;16.42;;;9.25;;
64865;SDS011;51347;41.994;21.402;2022-08-26T01:31:49;22.05;;;8.27;;
64865;SDS011;51347;41.994;21.402;2022-08-26T01:34:29;16.58;;;7.68;;
64865;SDS011;51347;41.994;21.402;2022-08-26T01:37:00;19.23;;;9.05;;
64865;SDS011;51347;41.994;21.402;2022-08-26T01:39:27;15.55;;;8.20;;
64865;SDS011;51347;41.994;21.402;2022-08-26T01:41:53;13.52;;;8.02;;
64865;SDS011;51347;41.994;21.402;2022-08-26T01:44:21;22.40;;;10.02;;
64865;SDS011;51347;41.994;21.402;2022-08-26T01:46:48;21.42;;;8.38;;
64865;SDS011;51347;41.994;21.402;2022-08-26T01:49:15;17.23;;;8.35;;
64865;SDS011;51347;41.994;21.402;2022-08-26T01:51:40;18.60;;;8.52;;
64865;SDS011;51347;41.994;21.402;2022-08-26T01:54:09;23.13;;;9.07;;
64865;SDS011;51347;41.994;21.402;2022-08-26T01:56:34;16.48;;;8.77;;
64865;SDS011;51347;41.994;21.402;2022-08-26T01:59:00;14.95;;;9.15;;
64865;SDS011;51347;41.994;21.402;2022-08-26T02:01:27;18.70;;;9.32;;
64865;SDS011;51347;41.994;21.402;2022-08-26T02:06:27;21.42;;;9.07;;
64865;SDS011;51347;41.994;21.402;2022-08-26T02:08:54;17.05;;;9.02;;
64865;SDS011;51347;41.994;21.402;2022-08-26T02:11:20;18.08;;;9.25;;
64865;SDS011;51347;41.994;21.402;2022-08-26T02:13:46;17.00;;;10.05;;
64865;SDS011;51347;41.994;21.402;2022-08-26T02:16:14;16.55;;;9.65;;
64865;SDS011;51347;41.994;21.402;2022-08-26T02:18:40;23.17;;;9.82;;
64865;SDS011;51347;41.994;21.402;2022-08-26T02:21:06;19.52;;;9.75;;
64865;SDS011;51347;41.994;21.402;2022-08-26T02:23:32;18.90;;;9.15;;
64865;SDS011;51347;41.994;21.402;2022-08-26T02:26:05;18.60;;;9.70;;
64865;SDS011;51347;41.994;21.402;2022-08-26T02:28:34;17.15;;;8.68;;
64865;SDS011;51347;41.994;21.402;2022-08-26T02:31:01;19.50;;;9.43;;
64865;SDS011;51347;41.994;21.402;2022-08-26T02:33:27;14.40;;;10.07;;
64865;SDS011;51347;41.994;21.402;2022-08-26T02:35:52;28.48;;;10.98;;
64865;SDS011;51347;41.994;21.402;2022-08-26T02:38:18;17.30;;;8.50;;
64865;SDS011;51347;41.994;21.402;2022-08-26T02:40:43;20.38;;;10.23;;
64865;SDS011;51347;41.994;21.402;2022-08-26T02:43:09;17.27;;;9.20;;
64865;SDS011;51347;41.994;21.402;2022-08-26T02:45:36;17.58;;;9.48;;
64865;SDS011;51347;41.994;21.402;2022-08-26T02:48:12;15.60;;;9.43;;
64865;SDS011;51347;41.994;21.402;2022-08-26T02:50:37;18.80;;;9.40;;
64865;SDS011;51347;41.994;21.402;2022-08-26T02:53:03;16.08;;;8.32;;
64865;SDS011;51347;41.994;21.402;2022-08-26T02:55:28;18.27;;;9.32;;
64865;SDS011;51347;41.994;21.402;2022-08-26T02:57:54;21.05;;;9.90;;
64865;SDS011;51347;41.994;21.402;2022-08-26T03:00:19;13.38;;;8.27;;
64865;SDS011;51347;41.994;21.402;2022-08-26T03:02:45;16.83;;;10.00;;
64865;SDS011;51347;41.994;21.402;2022-08-26T03:05:11;15.52;;;9.50;;
64865;SDS011;51347;41.994;21.402;2022-08-26T03:07:36;17.98;;;10.15;;
64865;SDS011;51347;41.994;21.402;2022-08-26T03:10:02;19.05;;;9.48;;
64865;SDS011;51347;41.994;21.402;2022-08-26T03:12:27;20.70;;;9.25;;
64865;SDS011;51347;41.994;21.402;2022-08-26T03:14:53;19.85;;;9.27;;
64865;SDS011;51347;41.994;21.402;2022-08-26T03:17:18;18.02;;;9.18;;
64865;SDS011;51347;41.994;21.402;2022-08-26T03:19:43;14.30;;;8.90;;
64865;SDS011;51347;41.994;21.402;2022-08-26T03:22:09;14.88;;;8.82;;
64865;SDS011;51347;41.994;21.402;2022-08-26T03:24:34;17.42;;;9.68;;
64865;SDS011;51347;41.994;21.402;2022-08-26T03:27:00;17.95;;;9.63;;
64865;SDS011;51347;41.994;21.402;2022-08-26T03:29:26;18.83;;;10.25;;
64865;SDS011;51347;41.994;21.402;2022-08-26T03:32:10;21.17;;;10.35;;
64865;SDS011;51347;41.994;21.402;2022-08-26T03:34:35;16.05;;;9.45;;
64865;SDS011;51347;41.994;21.402;2022-08-26T03:37:01;21.63;;;10.02;;
64865;SDS011;51347;41.994;21.402;2022-08-26T03:39:26;18.67;;;10.38;;
64865;SDS011;51347;41.994;21.402;2022-08-26T03:41:52;20.92;;;10.23;;
64865;SDS011;51347;41.994;21.402;2022-08-26T03:44:17;19.13;;;10.35;;
64865;SDS011;51347;41.994;21.402;2022-08-26T03:46:43;15.05;;;10.35;;
64865;SDS011;51347;41.994;21.402;2022-08-26T03:49:08;22.58;;;10.40;;
64865;SDS011;51347;41.994;21.402;2022-08-26T03:51:34;19.17;;;10.35;;
64865;SDS011;51347;41.994;21.402;2022-08-26T03:54:00;19.08;;;9.52;;
64865;SDS011;51347;41.994;21.402;2022-08-26T03:56:27;21.20;;;9.85;;
64865;SDS011;51347;41.994;21.402;2022-08-26T03:58:52;17.05;;;10.02;;
64865;SDS011;51347;41.994;21.402;2022-08-26T04:01:18;16.42;;;10.30;;
64865;SDS011;51347;41.994;21.402;2022-08-26T04:03:43;17.98;;;9.98;;
64865;SDS011;51347;41.994;21.402;2022-08-26T04:06:25;22.58;;;9.85;;
64865;SDS011;51347;41.994;21.402;2022-08-26T04:08:52;19.90;;;10.27;;
64865;SDS011;51347;41.994;21.402;2022-08-26T04:11:21;17.42;;;9.57;;
64865;SDS011;51347;41.994;21.402;2022-08-26T04:13:47;15.52;;;11.07;;
64865;SDS011;51347;41.994;21.402;2022-08-26T04:16:13;16.55;;;9.60;;
64865;SDS011;51347;41.994;21.402;2022-08-26T04:18:39;18.88;;;10.70;;
64865;SDS011;51347;41.994;21.402;2022-08-26T04:21:05;13.60;;;8.65;;
64865;SDS011;51347;41.994;21.402;2022-08-26T04:23:31;13.23;;;8.63;;
64865;SDS011;51347;41.994;21.402;2022-08-26T04:25:56;14.52;;;10.25;;
64865;SDS011;51347;41.994;21.402;2022-08-26T04:28:22;20.35;;;10.23;;
64865;SDS011;51347;41.994;21.402;2022-08-26T04:30:47;19.92;;;10.52;;
64865;SDS011;51347;41.994;21.402;2022-08-26T04:33:13;20.05;;;10.80;;
64865;SDS011;51347;41.994;21.402;2022-08-26T04:35:38;17.98;;;9.50;;
64865;SDS011;51347;41.994;21.402;2022-08-26T04:38:04;21.48;;;9.82;;
64865;SDS011;51347;41.994;21.402;2022-08-26T04:40:29;23.52;;;10.50;;
64865;SDS011;51347;41.994;21.402;2022-08-26T04:42:54;19.63;;;10.40;;
64865;SDS011;51347;41.994;21.402;2022-08-26T04:45:20;20.63;;;10.00;;
64865;SDS011;51347;41.994;21.402;2022-08-26T04:47:46;19.92;;;10.10;;
64865;SDS011;51347;41.994;21.402;2022-08-26T04:50:11;16.85;;;9.23;;
64865;SDS011;51347;41.994;21.402;2022-08-26T04:52:36;23.23;;;9.73;;
64865;SDS011;51347;41.994;21.402;2022-08-26T04:55:02;17.05;;;9.43;;
64865;SDS011;51347;41.994;21.402;2022-08-26T04:57:27;25.35;;;9.57;;
64865;SDS011;51347;41.994;21.402;2022-08-26T04:59:52;24.33;;;9.75;;
64865;SDS011;51347;41.994;21.402;2022-08-26T05:02:18;21.10;;;10.20;;
64865;SDS011;51347;41.994;21.402;2022-08-26T05:04:43;19.55;;;10.63;;
64865;SDS011;51347;41.994;21.402;2022-08-26T05:07:09;29.65;;;10.68;;
64865;SDS011;51347;41.994;21.402;2022-08-26T05:09:35;17.08;;;9.75;;
64865;SDS011;51347;41.994;21.402;2022-08-26T05:12:00;15.27;;;10.88;;
64865;SDS011;51347;41.994;21.402;2022-08-26T05:14:26;21.63;;;11.45;;
64865;SDS011;51347;41.994;21.402;2022-08-26T05:16:51;24.20;;;10.90;;
64865;SDS011;51347;41.994;21.402;2022-08-26T05:19:17;19.58;;;9.63;;
64865;SDS011;51347;41.994;21.402;2022-08-26T05:21:45;19.77;;;11.60;;
64865;SDS011;51347;41.994;21.402;2022-08-26T05:24:11;19.50;;;11.40;;
64865;SDS011;51347;41.994;21.402;2022-08-26T05:26:37;28.33;;;10.95;;
64865;SDS011;51347;41.994;21.402;2022-08-26T05:29:02;22.08;;;11.65;;
64865;SDS011;51347;41.994;21.402;2022-08-26T05:31:28;20.50;;;9.95;;
64865;SDS011;51347;41.994;21.402;2022-08-26T05:33:55;16.88;;;10.27;;
64865;SDS011;51347;41.994;21.402;2022-08-26T05:36:21;19.70;;;11.20;;
64865;SDS011;51347;41.994;21.402;2022-08-26T05:38:47;21.50;;;10.88;;
64865;SDS011;51347;41.994;21.402;2022-08-26T05:43:49;21.63;;;10.63;;
64865;SDS011;51347;41.994;21.402;2022-08-26T05:46:15;23.15;;;10.73;;
64865;SDS011;51347;41.994;21.402;2022-08-26T05:48:40;25.65;;;12.45;;
64865;SDS011;51347;41.994;21.402;2022-08-26T05:51:06;19.80;;;11.68;;
64865;SDS011;51347;41.994;21.402;2022-08-26T05:53:32;23.17;;;12.82;;
64865;SDS011;51347;41.994;21.402;2022-08-26T05:55:58;26.27;;;12.38;;
64865;SDS011;51347;41.994;21.402;2022-08-26T05:58:23;23.48;;;11.70;;
64865;SDS011;51347;41.994;21.402;2022-08-26T06:00:56;27.83;;;14.90;;
64865;SDS011;51347;41.994;21.402;2022-08-26T06:03:22;20.00;;;11.80;;
64865;SDS011;51347;41.994;21.402;2022-08-26T06:05:47;27.85;;;12.82;;
64865;SDS011;51347;41.994;21.402;2022-08-26T06:08:12;23.48;;;12.52;;
64865;SDS011;51347;41.994;21.402;2022-08-26T06:10:48;27.40;;;13.60;;
64865;SDS011;51347;41.994;21.402;2022-08-26T06:13:14;19.25;;;12.57;;
64865;SDS011;51347;41.994;21.402;2022-08-26T06:15:41;29.52;;;13.10;;
64865;SDS011;51347;41.994;21.402;2022-08-26T06:18:07;21.13;;;14.00;;
64865;SDS011;51347;41.994;21.402;2022-08-26T06:20:33;24.88;;;13.05;;
64865;SDS011;51347;41.994;21.402;2022-08-26T06:23:00;25.88;;;14.20;;
64865;SDS011;51347;41.994;21.402;2022-08-26T06:25:44;27.00;;;14.55;;
64865;SDS011;51347;41.994;21.402;2022-08-26T06:28:10;21.58;;;12.60;;
64865;SDS011;51347;41.994;21.402;2022-08-26T06:30:39;22.90;;;13.15;;
64865;SDS011;51347;41.994;21.402;2022-08-26T06:33:05;25.48;;;13.15;;
64865;SDS011;51347;41.994;21.402;2022-08-26T06:35:34;22.45;;;14.02;;
64865;SDS011;51347;41.994;21.402;2022-08-26T06:38:00;24.13;;;12.45;;
64865;SDS011;51347;41.994;21.402;2022-08-26T06:40:26;19.95;;;12.25;;
64865;SDS011;51347;41.994;21.402;2022-08-26T06:42:51;28.63;;;13.02;;
64865;SDS011;51347;41.994;21.402;2022-08-26T06:45:17;26.67;;;14.32;;
64865;SDS011;51347;41.994;21.402;2022-08-26T06:47:42;24.75;;;14.20;;
64865;SDS011;51347;41.994;21.402;2022-08-26T06:50:07;22.33;;;11.82;;
64865;SDS011;51347;41.994;21.402;2022-08-26T06:52:33;23.88;;;13.05;;
64865;SDS011;51347;41.994;21.402;2022-08-26T06:54:58;27.27;;;13.07;;
64865;SDS011;51347;41.994;21.402;2022-08-26T06:57:24;24.90;;;11.63;;
64865;SDS011;51347;41.994;21.402;2022-08-26T06:59:49;24.45;;;12.55;;
64865;SDS011;51347;41.994;21.402;2022-08-26T07:02:14;25.92;;;12.25;;
64865;SDS011;51347;41.994;21.402;2022-08-26T07:04:40;18.95;;;11.57;;
64865;SDS011;51347;41.994;21.402;2022-08-26T07:07:05;20.40;;;11.82;;
64865;SDS011;51347;41.994;21.402;2022-08-26T07:09:30;21.65;;;10.77;;
64865;SDS011;51347;41.994;21.402;2022-08-26T07:11:57;23.52;;;11.73;;
64865;SDS011;51347;41.994;21.402;2022-08-26T07:14:23;31.58;;;13.40;;
64865;SDS011;51347;41.994;21.402;2022-08-26T07:16:49;20.80;;;10.40;;
64865;SDS011;51347;41.994;21.402;2022-08-26T07:19:15;25.95;;;10.70;;
64865;SDS011;51347;41.994;21.402;2022-08-26T07:21:41;25.35;;;13.52;;
64865;SDS011;51347;41.994;21.402;2022-08-26T07:24:07;22.15;;;11.25;;
64865;SDS011;51347;41.994;21.402;2022-08-26T07:26:32;21.73;;;10.77;;
64865;SDS011;51347;41.994;21.402;2022-08-26T07:28:58;27.85;;;13.10;;
64865;SDS011;51347;41.994;21.402;2022-08-26T07:31:24;30.38;;;12.48;;
64865;SDS011;51347;41.994;21.402;2022-08-26T07:33:51;24.13;;;12.07;;
64865;SDS011;51347;41.994;21.402;2022-08-26T07:36:16;27.85;;;13.43;;
64865;SDS011;51347;41.994;21.402;2022-08-26T07:38:42;26.63;;;13.13;;
64865;SDS011;51347;41.994;21.402;2022-08-26T07:41:09;30.80;;;13.77;;
64865;SDS011;51347;41.994;21.402;2022-08-26T07:43:35;29.75;;;13.25;;
64865;SDS011;51347;41.994;21.402;2022-08-26T07:46:00;24.85;;;12.20;;
64865;SDS011;51347;41.994;21.402;2022-08-26T07:48:26;27.65;;;11.85;;
64865;SDS011;51347;41.994;21.402;2022-08-26T07:50:51;21.08;;;12.38;;
64865;SDS011;51347;41.994;21.402;2022-08-26T07:53:18;25.42;;;13.85;;
64865;SDS011;51347;41.994;21.402;2022-08-26T07:55:43;30.52;;;13.52;;
64865;SDS011;51347;41.994;21.402;2022-08-26T07:58:09;22.20;;;12.60;;
64865;SDS011;51347;41.994;21.402;2022-08-26T08:00:34;24.30;;;13.25;;
64865;SDS011;51347;41.994;21.402;2022-08-26T08:03:00;22.50;;;12.63;;
64865;SDS011;51347;41.994;21.402;2022-08-26T08:05:25;25.83;;;13.55;;
64865;SDS011;51347;41.994;21.402;2022-08-26T08:07:51;26.75;;;12.90;;
64865;SDS011;51347;41.994;21.402;2022-08-26T08:10:21;19.08;;;12.50;;
64865;SDS011;51347;41.994;21.402;2022-08-26T08:12:46;25.80;;;12.30;;
64865;SDS011;51347;41.994;21.402;2022-08-26T08:15:12;32.05;;;14.95;;
64865;SDS011;51347;41.994;21.402;2022-08-26T08:17:39;21.25;;;14.27;;
64865;SDS011;51347;41.994;21.402;2022-08-26T08:20:05;20.80;;;13.00;;
64865;SDS011;51347;41.994;21.402;2022-08-26T08:22:31;22.70;;;12.95;;
64865;SDS011;51347;41.994;21.402;2022-08-26T08:24:56;25.75;;;14.98;;
64865;SDS011;51347;41.994;21.402;2022-08-26T08:27:21;19.98;;;12.75;;
64865;SDS011;51347;41.994;21.402;2022-08-26T08:29:47;17.77;;;11.95;;
64865;SDS011;51347;41.994;21.402;2022-08-26T08:32:14;24.83;;;12.93;;
64865;SDS011;51347;41.994;21.402;2022-08-26T08:34:39;21.77;;;11.57;;
64865;SDS011;51347;41.994;21.402;2022-08-26T08:37:05;26.42;;;13.20;;
64865;SDS011;51347;41.994;21.402;2022-08-26T08:39:31;27.25;;;13.05;;
64865;SDS011;51347;41.994;21.402;2022-08-26T08:42:05;20.67;;;12.18;;
64865;SDS011;51347;41.994;21.402;2022-08-26T08:44:35;26.45;;;13.50;;
64865;SDS011;51347;41.994;21.402;2022-08-26T08:47:03;15.35;;;11.07;;
64865;SDS011;51347;41.994;21.402;2022-08-26T08:49:30;25.75;;;11.80;;
64865;SDS011;51347;41.994;21.402;2022-08-26T08:54:24;19.35;;;11.18;;
64865;SDS011;51347;41.994;21.402;2022-08-26T08:59:35;22.95;;;12.30;;
64865;SDS011;51347;41.994;21.402;2022-08-26T09:02:14;22.25;;;11.20;;
64865;SDS011;51347;41.994;21.402;2022-08-26T09:07:18;25.45;;;9.68;;
64865;SDS011;51347;41.994;21.402;2022-08-26T09:09:46;32.15;;;12.00;;
64865;SDS011;51347;41.994;21.402;2022-08-26T09:12:14;29.70;;;10.90;;
64865;SDS011;51347;41.994;21.402;2022-08-26T09:14:41;28.13;;;10.50;;
64865;SDS011;51347;41.994;21.402;2022-08-26T09:17:09;23.00;;;9.93;;
64865;SDS011;51347;41.994;21.402;2022-08-26T09:19:40;23.23;;;10.10;;
64865;SDS011;51347;41.994;21.402;2022-08-26T09:22:07;22.63;;;10.27;;
64865;SDS011;51347;41.994;21.402;2022-08-26T09:24:33;20.95;;;10.25;;
64865;SDS011;51347;41.994;21.402;2022-08-26T09:27:00;21.30;;;9.90;;
64865;SDS011;51347;41.994;21.402;2022-08-26T09:29:26;24.73;;;9.25;;
64865;SDS011;51347;41.994;21.402;2022-08-26T09:32:11;16.50;;;7.50;;
64865;SDS011;51347;41.994;21.402;2022-08-26T09:34:37;17.65;;;7.60;;
64865;SDS011;51347;41.994;21.402;2022-08-26T09:37:16;14.63;;;7.72;;
64865;SDS011;51347;41.994;21.402;2022-08-26T09:39:56;18.10;;;7.75;;
64865;SDS011;51347;41.994;21.402;2022-08-26T09:42:35;24.42;;;7.85;;
64865;SDS011;51347;41.994;21.402;2022-08-26T09:45:01;22.17;;;7.85;;
64865;SDS011;51347;41.994;21.402;2022-08-26T09:47:30;16.45;;;7.68;;
64865;SDS011;51347;41.994;21.402;2022-08-26T09:49:57;22.15;;;7.78;;
64865;SDS011;51347;41.994;21.402;2022-08-26T09:52:23;12.95;;;7.20;;
64865;SDS011;51347;41.994;21.402;2022-08-26T09:54:58;21.60;;;8.32;;
64865;SDS011;51347;41.994;21.402;2022-08-26T09:57:26;17.48;;;8.10;;
64865;SDS011;51347;41.994;21.402;2022-08-26T09:59:52;12.32;;;6.75;;
64865;SDS011;51347;41.994;21.402;2022-08-26T10:02:23;24.00;;;7.70;;
64865;SDS011;51347;41.994;21.402;2022-08-26T10:04:50;12.93;;;6.45;;
64865;SDS011;51347;41.994;21.402;2022-08-26T10:07:33;21.17;;;7.45;;
64865;SDS011;51347;41.994;21.402;2022-08-26T10:12:23;13.13;;;5.28;;
64865;SDS011;51347;41.994;21.402;2022-08-26T10:14:50;22.27;;;7.40;;
64865;SDS011;51347;41.994;21.402;2022-08-26T10:20:06;13.98;;;6.72;;
64865;SDS011;51347;41.994;21.402;2022-08-26T10:25:10;17.10;;;6.65;;
64865;SDS011;51347;41.994;21.402;2022-08-26T10:30:06;16.80;;;9.68;;
64865;SDS011;51347;41.994;21.402;2022-08-26T10:32:39;13.98;;;6.63;;
64865;SDS011;51347;41.994;21.402;2022-08-26T10:35:05;16.98;;;6.35;;
64865;SDS011;51347;41.994;21.402;2022-08-26T10:37:33;13.95;;;6.15;;
64865;SDS011;51347;41.994;21.402;2022-08-26T10:40:14;12.75;;;6.32;;
64865;SDS011;51347;41.994;21.402;2022-08-26T10:42:43;13.52;;;6.65;;
64865;SDS011;51347;41.994;21.402;2022-08-26T10:45:14;12.93;;;6.28;;
64865;SDS011;51347;41.994;21.402;2022-08-26T10:50:06;14.32;;;5.43;;
64865;SDS011;51347;41.994;21.402;2022-08-26T10:55:21;21.38;;;5.88;;
64865;SDS011;51347;41.994;21.402;2022-08-26T11:00:33;14.50;;;5.82;;
64865;SDS011;51347;41.994;21.402;2022-08-26T11:08:35;15.25;;;6.43;;
64865;SDS011;51347;41.994;21.402;2022-08-26T11:11:09;13.35;;;5.72;;
64865;SDS011;51347;41.994;21.402;2022-08-26T11:13:56;16.65;;;6.88;;
64865;SDS011;51347;41.994;21.402;2022-08-26T11:17:04;14.32;;;5.45;;
64865;SDS011;51347;41.994;21.402;2022-08-26T11:19:12;18.00;;;6.70;;
64865;SDS011;51347;41.994;21.402;2022-08-26T11:22:27;15.07;;;5.70;;
64865;SDS011;51347;41.994;21.402;2022-08-26T11:29:57;20.23;;;6.10;;
64865;SDS011;51347;41.994;21.402;2022-08-26T11:34:50;17.65;;;5.70;;
64865;SDS011;51347;41.994;21.402;2022-08-26T11:37:16;11.40;;;5.35;;
64865;SDS011;51347;41.994;21.402;2022-08-26T11:39:49;14.13;;;6.32;;
64865;SDS011;51347;41.994;21.402;2022-08-26T11:44:50;10.30;;;5.65;;
64865;SDS011;51347;41.994;21.402;2022-08-26T11:47:16;15.13;;;6.40;;
64865;SDS011;51347;41.994;21.402;2022-08-26T11:49:49;14.48;;;6.45;;
64865;SDS011;51347;41.994;21.402;2022-08-26T11:52:20;13.75;;;6.03;;
64865;SDS011;51347;41.994;21.402;2022-08-26T11:54:59;17.48;;;6.20;;
64865;SDS011;51347;41.994;21.402;2022-08-26T11:57:24;9.07;;;5.68;;
64865;SDS011;51347;41.994;21.402;2022-08-26T11:59:50;17.00;;;5.88;;
64865;SDS011;51347;41.994;21.402;2022-08-26T12:02:15;16.08;;;7.22;;
64865;SDS011;51347;41.994;21.402;2022-08-26T12:04:42;11.75;;;4.72;;
64865;SDS011;51347;41.994;21.402;2022-08-26T12:07:09;9.63;;;5.22;;
64865;SDS011;51347;41.994;21.402;2022-08-26T12:09:35;16.17;;;5.00;;
64865;SDS011;51347;41.994;21.402;2022-08-26T12:12:14;13.27;;;5.22;;
64865;SDS011;51347;41.994;21.402;2022-08-26T12:14:40;22.75;;;6.28;;
64865;SDS011;51347;41.994;21.402;2022-08-26T12:17:48;13.77;;;5.68;;
64865;SDS011;51347;41.994;21.402;2022-08-26T12:19:55;13.05;;;6.13;;
64865;SDS011;51347;41.994;21.402;2022-08-26T12:22:22;11.60;;;5.30;;
64865;SDS011;51347;41.994;21.402;2022-08-26T12:24:49;16.60;;;5.07;;
64865;SDS011;51347;41.994;21.402;2022-08-26T12:27:17;19.05;;;5.70;;
64865;SDS011;51347;41.994;21.402;2022-08-26T12:29:44;10.75;;;5.47;;
64865;SDS011;51347;41.994;21.402;2022-08-26T12:32:23;13.85;;;5.47;;
64865;SDS011;51347;41.994;21.402;2022-08-26T12:34:48;18.90;;;6.65;;
64865;SDS011;51347;41.994;21.402;2022-08-26T12:37:14;14.07;;;5.05;;
64865;SDS011;51347;41.994;21.402;2022-08-26T12:39:40;17.05;;;5.75;;
64865;SDS011;51347;41.994;21.402;2022-08-26T12:47:38;18.08;;;6.00;;
64865;SDS011;51347;41.994;21.402;2022-08-26T12:50:21;17.13;;;6.47;;
64865;SDS011;51347;41.994;21.402;2022-08-26T12:53:04;12.77;;;5.40;;
64865;SDS011;51347;41.994;21.402;2022-08-26T12:55:41;14.10;;;5.47;;
64865;SDS011;51347;41.994;21.402;2022-08-26T13:00:36;19.88;;;6.32;;
64865;SDS011;51347;41.994;21.402;2022-08-26T13:03:01;13.57;;;5.28;;
64865;SDS011;51347;41.994;21.402;2022-08-26T13:05:29;15.75;;;6.25;;
64865;SDS011;51347;41.994;21.402;2022-08-26T13:08:07;31.43;;;7.33;;
64865;SDS011;51347;41.994;21.402;2022-08-26T13:10:33;12.85;;;5.70;;
64865;SDS011;51347;41.994;21.402;2022-08-26T13:12:59;13.35;;;5.90;;
64865;SDS011;51347;41.994;21.402;2022-08-26T13:15:25;16.55;;;6.70;;
64865;SDS011;51347;41.994;21.402;2022-08-26T13:17:50;15.55;;;5.75;;
64865;SDS011;51347;41.994;21.402;2022-08-26T13:20:15;10.82;;;5.68;;
64865;SDS011;51347;41.994;21.402;2022-08-26T13:22:41;15.95;;;6.28;;
64865;SDS011;51347;41.994;21.402;2022-08-26T13:25:06;13.60;;;5.70;;
64865;SDS011;51347;41.994;21.402;2022-08-26T13:27:31;12.13;;;5.70;;
64865;SDS011;51347;41.994;21.402;2022-08-26T13:29:57;13.52;;;5.78;;
64865;SDS011;51347;41.994;21.402;2022-08-26T13:32:23;16.45;;;5.78;;
64865;SDS011;51347;41.994;21.402;2022-08-26T13:34:51;8.70;;;5.47;;
64865;SDS011;51347;41.994;21.402;2022-08-26T13:37:17;14.35;;;5.57;;
64865;SDS011;51347;41.994;21.402;2022-08-26T13:39:47;13.73;;;4.97;;
64865;SDS011;51347;41.994;21.402;2022-08-26T13:42:12;12.65;;;5.45;;
64865;SDS011;51347;41.994;21.402;2022-08-26T13:44:38;16.40;;;5.10;;
64865;SDS011;51347;41.994;21.402;2022-08-26T13:47:04;16.80;;;5.68;;
64865;SDS011;51347;41.994;21.402;2022-08-26T13:49:30;18.40;;;6.15;;
64865;SDS011;51347;41.994;21.402;2022-08-26T13:51:55;15.77;;;5.57;;
64865;SDS011;51347;41.994;21.402;2022-08-26T13:54:20;17.08;;;5.18;;
64865;SDS011;51347;41.994;21.402;2022-08-26T13:56:46;15.00;;;5.65;;
64865;SDS011;51347;41.994;21.402;2022-08-26T13:59:11;14.20;;;5.55;;
64865;SDS011;51347;41.994;21.402;2022-08-26T14:01:36;14.40;;;5.80;;
64865;SDS011;51347;41.994;21.402;2022-08-26T14:04:04;17.95;;;5.43;;
64865;SDS011;51347;41.994;21.402;2022-08-26T14:06:29;13.55;;;4.97;;
64865;SDS011;51347;41.994;21.402;2022-08-26T14:08:54;16.35;;;4.88;;
64865;SDS011;51347;41.994;21.402;2022-08-26T14:11:20;16.55;;;5.70;;
64865;SDS011;51347;41.994;21.402;2022-08-26T14:13:45;12.40;;;4.95;;
64865;SDS011;51347;41.994;21.402;2022-08-26T14:16:11;16.20;;;5.63;;
64865;SDS011;51347;41.994;21.402;2022-08-26T14:18:39;16.85;;;4.78;;
64865;SDS011;51347;41.994;21.402;2022-08-26T14:21:05;14.57;;;4.97;;
64865;SDS011;51347;41.994;21.402;2022-08-26T14:23:31;8.85;;;4.57;;
64865;SDS011;51347;41.994;21.402;2022-08-26T14:25:56;21.50;;;5.72;;
64865;SDS011;51347;41.994;21.402;2022-08-26T14:28:21;17.90;;;5.38;;
64865;SDS011;51347;41.994;21.402;2022-08-26T14:30:49;20.02;;;5.50;;
64865;SDS011;51347;41.994;21.402;2022-08-26T14:33:16;15.07;;;5.38;;
64865;SDS011;51347;41.994;21.402;2022-08-26T14:35:42;20.73;;;5.93;;
64865;SDS011;51347;41.994;21.402;2022-08-26T14:38:08;19.48;;;5.75;;
64865;SDS011;51347;41.994;21.402;2022-08-26T14:40:33;14.35;;;5.20;;
64865;SDS011;51347;41.994;21.402;2022-08-26T14:42:58;10.68;;;4.18;;
64865;SDS011;51347;41.994;21.402;2022-08-26T14:45:24;9.55;;;4.85;;
64865;SDS011;51347;41.994;21.402;2022-08-26T14:47:50;15.43;;;5.30;;
64865;SDS011;51347;41.994;21.402;2022-08-26T14:50:23;13.73;;;4.97;;
64865;SDS011;51347;41.994;21.402;2022-08-26T14:52:49;10.77;;;5.38;;
64865;SDS011;51347;41.994;21.402;2022-08-26T14:55:33;12.13;;;5.18;;
64865;SDS011;51347;41.994;21.402;2022-08-26T14:57:59;12.65;;;5.35;;
64865;SDS011;51347;41.994;21.402;2022-08-26T15:00:24;8.95;;;3.90;;
64865;SDS011;51347;41.994;21.402;2022-08-26T15:02:50;14.93;;;5.45;;
64865;SDS011;51347;41.994;21.402;2022-08-26T15:05:15;10.45;;;5.20;;
64865;SDS011;51347;41.994;21.402;2022-08-26T15:07:41;9.75;;;4.22;;
64865;SDS011;51347;41.994;21.402;2022-08-26T15:10:09;11.40;;;5.05;;
64865;SDS011;51347;41.994;21.402;2022-08-26T15:12:36;12.50;;;4.40;;
64865;SDS011;51347;41.994;21.402;2022-08-26T15:15:02;11.18;;;4.22;;